Time;durP1;ratioP1;P1;durP2;ratioP2;P2;SDS_P1;SDS_P2;PMS_P1;PMS_P2;Temp;Humidity;BMP_temperature;BMP_pressure;BME280_temperature;BME280_humidity;BME280_pressure;Samples;Min_cycle;Max_cycle;Signal;HPM_P1;HPM_P2
2021/12/05 00:18:50;;;;;;;17.20;3.70;;;6.50;99.90;;;3.98;100.00;98831.88;5009752;28;20137;-88
2021/12/05 00:21:40;;;;;;;12.82;3.40;;;6.50;99.90;;;3.97;100.00;98838.25;5009661;28;20050;-87
2021/12/05 00:24:13;;;;;;;15.18;3.40;;;6.50;99.90;;;3.97;100.00;98840.94;5009433;28;20041;-87
2021/12/05 00:26:45;;;;;;;15.40;3.42;;;6.50;99.90;;;3.94;100.00;98835.09;5026053;28;20063;-87
2021/12/05 00:29:30;;;;;;;17.15;3.70;;;6.40;99.90;;;3.89;100.00;98841.88;5029116;28;20508;-87
2021/12/05 00:32:06;;;;;;;12.85;3.17;;;6.40;99.90;;;3.88;100.00;98848.28;5029234;28;20107;-87
2021/12/05 00:43:30;;;;;;;15.20;3.33;;;6.30;99.90;;;3.75;100.00;98842.69;5028865;28;20067;-87
2021/12/05 00:51:52;;;;;;;12.40;3.15;;;6.30;99.90;;;3.56;100.00;98851.25;5011068;28;20054;-88
2021/12/05 01:06:47;;;;;;;16.40;3.35;;;6.20;99.90;;;3.88;100.00;98860.88;4980818;28;20107;-87
2021/12/05 01:12:18;;;;;;;15.60;3.72;;;6.20;99.90;;;3.89;100.00;98868.78;5023147;28;20649;-87
2021/12/05 01:15:03;;;;;;;18.10;3.97;;;6.20;99.90;;;3.95;100.00;98863.69;5026849;28;20053;-88
2021/12/05 01:17:44;;;;;;;13.98;3.20;;;6.20;99.90;;;3.99;100.00;98875.78;5010714;28;20049;-87
2021/12/05 01:20:17;;;;;;;15.52;3.55;;;6.20;99.90;;;4.03;100.00;98869.00;5010489;28;20160;-88
2021/12/05 01:22:55;;;;;;;21.60;4.18;;;6.20;99.90;;;4.04;100.00;98874.19;5010654;28;20072;-87
2021/12/05 01:25:34;;;;;;;16.13;3.03;;;6.30;99.90;;;4.07;100.00;98881.94;5025887;28;20156;-87
2021/12/05 01:28:09;;;;;;;16.10;3.25;;;6.30;99.90;;;4.09;100.00;98879.88;5027177;28;20141;-88
2021/12/05 01:30:44;;;;;;;10.95;3.15;;;6.30;99.90;;;4.11;100.00;98882.38;5028492;28;20152;-88
2021/12/05 01:33:22;;;;;;;12.55;3.30;;;6.30;99.90;;;4.15;100.00;98881.00;5043536;28;20813;-88
2021/12/05 01:36:01;;;;;;;16.98;3.60;;;6.40;99.90;;;4.16;100.00;98888.03;5010126;28;20045;-87
2021/12/05 01:38:45;;;;;;;11.85;3.08;;;6.40;99.90;;;4.22;100.00;98886.47;5026793;28;20057;-88
2021/12/05 01:41:45;;;;;;;15.50;3.25;;;6.50;99.90;;;4.20;100.00;98900.13;5028187;28;20056;-87
2021/12/05 01:50:30;;;;;;;14.93;3.30;;;6.40;99.90;;;4.18;100.00;98893.25;5002119;28;20733;-87
2021/12/05 01:56:06;;;;;;;14.95;3.28;;;6.50;99.90;;;4.27;100.00;98895.69;5015903;28;20111;-87
2021/12/05 02:09:49;;;;;;;14.18;4.05;;;6.50;99.90;;;4.26;100.00;98891.28;5027607;28;20052;-88
2021/12/05 02:32:26;;;;;;;20.45;3.15;;;6.40;99.90;;;4.05;100.00;98886.63;4992336;28;20080;-88
2021/12/05 02:35:11;;;;;;;19.15;3.42;;;6.30;99.90;;;4.01;100.00;98879.09;4992183;28;20612;-87
2021/12/05 02:40:44;;;;;;;15.77;3.80;;;6.40;99.90;;;4.01;100.00;98879.09;5004393;28;20049;-87
2021/12/05 02:43:16;;;;;;;15.68;2.92;;;6.30;99.90;;;4.01;100.00;98879.94;5029869;28;20538;-88
2021/12/05 02:45:47;;;;;;;17.50;3.08;;;6.40;99.90;;;3.97;100.00;98884.03;5013101;28;20049;-88
2021/12/05 02:48:16;;;;;;;15.40;3.17;;;6.30;99.90;;;4.02;100.00;98880.81;5013304;28;20517;-88
2021/12/05 02:50:44;;;;;;;16.33;3.03;;;6.30;99.90;;;4.05;100.00;98880.41;5013124;28;20057;-88
2021/12/05 02:53:19;;;;;;;12.05;2.85;;;6.30;99.90;;;3.99;100.00;98879.28;5029719;28;20045;-88
2021/12/05 02:55:51;;;;;;;12.82;3.67;;;6.30;99.90;;;3.97;100.00;98883.19;5030834;28;20045;-88
2021/12/05 02:58:31;;;;;;;17.17;3.53;;;6.30;99.90;;;3.99;100.00;98870.38;5013155;28;20099;-88
2021/12/05 03:01:10;;;;;;;20.88;3.55;;;6.30;99.90;;;4.02;100.00;98870.03;5013018;28;20057;-87
2021/12/05 03:03:40;;;;;;;16.48;3.00;;;6.30;99.90;;;4.06;100.00;98874.84;5009589;28;20053;-87
2021/12/05 03:06:17;;;;;;;15.55;2.92;;;6.30;99.90;;;4.09;100.00;98881.72;5009431;28;20046;-87
2021/12/05 03:08:52;;;;;;;15.35;3.35;;;6.30;99.90;;;4.02;100.00;98870.03;5011031;28;20048;-88
2021/12/05 03:11:22;;;;;;;20.00;3.25;;;6.30;99.90;;;4.05;100.00;98875.03;5051170;23;20084;-84
2021/12/05 03:13:49;;;;;;;15.40;3.35;;;6.30;99.90;;;4.00;100.00;98869.34;5030389;28;20127;-84
2021/12/05 03:16:19;;;;;;;15.85;3.45;;;6.30;99.90;;;3.96;100.00;98870.75;5011952;28;20053;-84
2021/12/05 03:18:48;;;;;;;12.82;3.50;;;6.30;99.90;;;3.99;100.00;98865.81;5012613;28;20049;-84
2021/12/05 03:21:18;;;;;;;16.17;3.00;;;6.30;99.90;;;3.96;100.00;98871.59;5045617;28;20057;-84
2021/12/05 03:23:51;;;;;;;11.85;2.40;;;6.30;99.90;;;3.98;100.00;98874.09;5030445;28;20041;-84
2021/12/05 03:26:23;;;;;;;14.07;3.05;;;6.30;99.90;;;3.95;100.00;98874.47;5029786;28;20041;-84
2021/12/05 03:28:54;;;;;;;12.40;3.03;;;6.30;99.90;;;3.91;100.00;98874.00;5008923;28;20415;-84
2021/12/05 03:31:24;;;;;;;14.68;2.85;;;6.30;99.90;;;3.92;100.00;98879.19;4992781;28;20061;-84
2021/12/05 03:33:53;;;;;;;11.75;2.97;;;6.30;99.90;;;3.94;100.00;98867.41;5000185;28;20573;-85
2021/12/05 03:36:22;;;;;;;13.35;2.70;;;6.30;99.90;;;4.04;100.00;98868.00;5012104;28;20780;-84
2021/12/05 03:38:51;;;;;;;8.82;2.78;;;6.30;99.90;;;4.05;100.00;98869.66;5011920;28;20573;-84
2021/12/05 03:41:20;;;;;;;21.88;4.05;;;6.20;99.90;;;4.08;100.00;98866.59;5011951;28;20045;-84
2021/12/05 03:43:53;;;;;;;21.23;3.38;;;6.30;99.90;;;4.11;100.00;98853.59;5012027;28;20434;-85
2021/12/05 03:46:22;;;;;;;16.85;2.70;;;6.30;99.90;;;4.10;100.00;98867.25;5029807;28;20099;-85
2021/12/05 03:48:56;;;;;;;13.23;3.03;;;6.30;99.90;;;4.09;100.00;98873.63;5011969;28;20077;-84
2021/12/05 03:51:27;;;;;;;13.82;2.95;;;6.30;99.90;;;4.06;100.00;98857.88;5011813;28;20056;-84
2021/12/05 03:53:56;;;;;;;12.00;2.85;;;6.20;99.90;;;4.02;100.00;98864.66;5012170;28;20064;-84
2021/12/05 03:56:25;;;;;;;12.90;2.90;;;6.30;99.90;;;4.02;100.00;98864.66;5011923;28;20486;-84
2021/12/05 03:58:54;;;;;;;16.60;3.10;;;6.20;99.90;;;3.95;100.00;98867.22;5011812;28;20052;-84
2021/12/05 04:01:24;;;;;;;13.13;3.08;;;6.30;99.90;;;3.98;100.00;98858.78;5011947;28;20045;-84
2021/12/05 04:03:54;;;;;;;14.30;3.00;;;6.20;99.90;;;3.97;100.00;98867.03;5017994;28;20054;-84
2021/12/05 04:06:27;;;;;;;15.85;3.13;;;6.20;99.90;;;3.97;100.00;98850.91;5028076;28;20049;-84
2021/12/05 04:08:59;;;;;;;10.95;2.47;;;6.20;99.90;;;3.99;100.00;98851.53;5011943;28;20123;-84
2021/12/05 04:11:35;;;;;;;17.63;3.05;;;6.20;99.90;;;4.00;100.00;98858.59;5011493;28;20045;-84
2021/12/05 04:14:03;;;;;;;18.02;2.80;;;6.20;99.90;;;3.87;100.00;98862.75;5011304;28;20151;-84
2021/12/05 04:16:31;;;;;;;16.20;2.72;;;6.20;99.90;;;3.88;100.00;98858.19;5011570;28;20063;-84
2021/12/05 04:18:59;;;;;;;9.38;2.35;;;6.20;99.90;;;3.88;100.00;98867.13;5021759;28;20033;-84
2021/12/05 04:21:29;;;;;;;16.30;3.53;;;6.20;99.90;;;3.79;100.00;98861.97;4991900;28;20127;-84
2021/12/05 04:23:59;;;;;;;13.10;2.63;;;6.30;99.90;;;3.86;100.00;98854.84;5009419;28;20046;-85
2021/12/05 04:26:27;;;;;;;19.23;3.45;;;6.20;99.90;;;3.88;100.00;98859.06;4991790;28;20071;-84
2021/12/05 04:28:55;;;;;;;14.57;3.47;;;6.20;99.90;;;3.79;100.00;98860.16;4991742;28;20065;-85
2021/12/05 04:31:23;;;;;;;15.52;2.78;;;6.20;99.90;;;3.77;100.00;98859.50;4991860;28;20045;-84
2021/12/05 04:33:52;;;;;;;18.00;2.97;;;6.20;99.90;;;3.77;100.00;98861.31;4998741;28;20057;-84
2021/12/05 04:36:21;;;;;;;15.65;2.63;;;6.10;99.90;;;3.77;100.00;98859.50;5010926;28;20168;-84
2021/12/05 04:38:49;;;;;;;15.73;3.20;;;6.10;99.90;;;3.73;100.00;98855.47;5010779;28;20042;-84
2021/12/05 04:41:18;;;;;;;17.42;2.45;;;6.10;99.90;;;3.69;100.00;98859.53;5028426;28;20092;-85
2021/12/05 04:43:50;;;;;;;11.55;2.38;;;6.10;99.90;;;3.68;100.00;98869.47;5011098;28;20100;-87
2021/12/05 04:46:21;;;;;;;15.88;3.30;;;6.10;99.90;;;3.66;100.00;98860.75;5010878;28;20045;-86
2021/12/05 04:48:52;;;;;;;22.58;2.92;;;6.10;99.90;;;3.67;100.00;98861.56;5011032;28;20073;-86
2021/12/05 04:51:24;;;;;;;10.32;2.80;;;6.00;99.90;;;3.64;100.00;98861.97;5010973;28;20137;-87
2021/12/05 04:53:53;;;;;;;13.60;2.90;;;6.00;99.90;;;3.61;100.00;98857.75;5010902;28;20521;-86
2021/12/05 04:56:23;;;;;;;10.95;2.17;;;6.00;99.90;;;3.60;100.00;98868.69;5010727;28;20053;-86
2021/12/05 04:58:53;;;;;;;10.40;2.83;;;6.10;99.90;;;3.56;100.00;98870.06;5010959;28;20140;-86
2021/12/05 05:01:25;;;;;;;14.60;2.80;;;6.00;99.90;;;3.50;100.00;98872.47;5010963;28;20099;-86
2021/12/05 05:03:54;;;;;;;9.70;2.63;;;6.00;99.90;;;3.46;100.00;98870.31;5028750;28;20543;-86
2021/12/05 05:06:23;;;;;;;18.98;2.50;;;6.00;99.90;;;3.44;100.00;98857.03;5028411;28;20056;-86
2021/12/05 05:08:55;;;;;;;12.55;2.47;;;6.00;99.90;;;3.48;100.00;98861.06;5028620;28;20144;-86
2021/12/05 05:11:26;;;;;;;13.23;2.40;;;5.90;99.90;;;3.47;100.00;98869.31;5028526;28;20152;-85
2021/12/05 05:13:54;;;;;;;15.98;2.90;;;5.90;99.90;;;3.44;100.00;98867.81;5028522;28;20141;-86
2021/12/05 05:16:24;;;;;;;12.30;2.42;;;5.90;99.90;;;3.44;100.00;98870.50;5028389;28;20124;-87
2021/12/05 05:18:55;;;;;;;13.00;2.37;;;5.90;99.90;;;3.35;100.00;98868.91;5028353;28;20041;-86
2021/12/05 05:21:36;;;;;;;17.60;3.30;;;5.90;99.90;;;3.39;100.00;98869.34;5028386;28;20060;-86
2021/12/05 05:24:21;;;;;;;13.70;2.00;;;5.90;99.90;;;3.41;100.00;98872.69;5028219;28;20502;-85
2021/12/05 05:44:03;;;;;;;12.73;2.13;;;5.80;99.90;;;3.55;100.00;98880.00;5010301;28;20065;-86
2021/12/05 05:46:39;;;;;;;15.05;2.65;;;5.90;99.90;;;3.51;100.00;98882.22;5028130;28;20049;-86
2021/12/05 05:49:15;;;;;;;12.35;2.38;;;5.80;99.90;;;3.45;100.00;98895.56;5028204;28;20037;-86
2021/12/05 05:51:42;;;;;;;12.60;2.20;;;5.80;99.90;;;3.52;100.00;98901.88;5012813;28;20053;-86
2021/12/05 05:54:10;;;;;;;13.80;2.65;;;5.80;99.90;;;3.53;100.00;98899.00;5031962;28;20057;-86
2021/12/05 05:56:39;;;;;;;10.23;2.30;;;5.80;99.90;;;3.59;100.00;98896.63;5032231;28;20042;-86
2021/12/05 05:59:15;;;;;;;9.35;2.13;;;5.80;99.90;;;3.61;100.00;98899.97;5032147;28;20152;-86
2021/12/05 06:02:03;;;;;;;9.43;2.10;;;5.80;99.90;;;3.64;100.00;98907.69;5032162;28;20045;-84
2021/12/05 06:04:30;;;;;;;10.98;2.67;;;5.90;99.90;;;3.64;100.00;98905.00;5031672;28;20057;-83
2021/12/05 06:06:58;;;;;;;9.18;2.28;;;5.90;99.90;;;3.64;100.00;98908.50;5032028;28;20492;-83
2021/12/05 06:09:25;;;;;;;12.38;2.42;;;5.90;99.90;;;3.67;100.00;98907.31;5031844;28;20141;-86
2021/12/05 06:11:52;;;;;;;13.38;2.60;;;5.90;99.90;;;3.73;100.00;98906.59;5031891;28;20049;-86
2021/12/05 06:14:21;;;;;;;12.68;2.58;;;5.90;99.90;;;3.73;100.00;98920.03;5031588;28;20049;-86
2021/12/05 06:16:48;;;;;;;13.27;2.53;;;5.90;99.90;;;3.78;100.00;98924.91;5013778;28;20049;-86
2021/12/05 06:19:15;;;;;;;7.82;2.20;;;5.90;99.90;;;3.77;100.00;98925.91;5030074;28;20140;-86
2021/12/05 06:21:43;;;;;;;8.57;2.42;;;5.90;99.90;;;3.79;100.00;98924.72;5031594;28;20139;-86
2021/12/05 06:24:10;;;;;;;12.45;2.63;;;6.00;99.90;;;3.82;100.00;98918.97;5013442;28;20548;-86
2021/12/05 06:26:38;;;;;;;13.02;2.10;;;6.00;99.90;;;3.84;100.00;98925.00;5031656;28;20120;-84
2021/12/05 06:29:14;;;;;;;10.52;2.33;;;6.00;99.90;;;3.85;100.00;98926.69;5031706;28;20054;-84
2021/12/05 06:31:56;;;;;;;13.52;2.88;;;6.00;99.90;;;3.89;100.00;98930.69;5031101;28;20399;-84
2021/12/05 06:37:34;;;;;;;15.55;2.38;;;6.00;99.90;;;3.90;100.00;98929.69;5013942;28;20053;-86
2021/12/05 06:40:18;;;;;;;14.60;2.58;;;6.00;99.90;;;3.95;100.00;98928.28;5031315;28;20046;-85
2021/12/05 06:42:52;;;;;;;8.93;2.28;;;6.00;99.90;;;3.95;100.00;98933.69;5031534;28;20049;-86
2021/12/05 06:48:07;;;;;;;10.43;2.35;;;6.00;99.90;;;3.97;100.00;98939.72;5013352;28;20091;-86
2021/12/05 06:50:34;;;;;;;10.00;2.40;;;6.00;99.90;;;3.97;100.00;98942.41;5013258;28;20046;-86
2021/12/05 06:53:06;;;;;;;10.27;2.10;;;6.10;99.90;;;3.98;100.00;98944.06;5028889;28;20053;-86
2021/12/05 06:55:34;;;;;;;11.00;2.67;;;6.10;99.90;;;4.00;100.00;98942.03;5031164;28;20055;-86
2021/12/05 06:58:01;;;;;;;10.35;2.50;;;6.10;99.90;;;4.03;100.00;98944.38;5031163;28;20047;-86
2021/12/05 07:00:31;;;;;;;12.18;2.70;;;6.10;99.90;;;4.00;100.00;98960.88;5012705;28;20537;-86
2021/12/05 07:02:59;;;;;;;10.38;2.67;;;6.10;99.90;;;4.02;100.00;98962.38;5012245;28;20053;-86
2021/12/05 07:05:53;;;;;;;10.25;2.17;;;6.10;99.90;;;4.06;100.00;98968.25;5012779;28;20149;-87
2021/12/05 07:08:23;;;;;;;8.95;2.40;;;6.10;99.90;;;4.06;100.00;98971.75;5031024;28;20072;-86
2021/12/05 07:10:56;;;;;;;11.07;2.22;;;6.10;99.90;;;4.06;100.00;98974.44;5030836;28;20055;-86
2021/12/05 07:16:16;;;;;;;9.70;2.38;;;6.10;99.90;;;4.10;100.00;98974.94;5012315;28;20049;-86
2021/12/05 07:19:00;;;;;;;13.40;2.50;;;6.10;99.90;;;4.10;100.00;98978.44;5030586;28;20120;-86
2021/12/05 07:21:38;;;;;;;8.88;2.40;;;6.10;99.90;;;4.13;100.00;98971.84;5030695;28;20138;-86
2021/12/05 07:24:13;;;;;;;7.78;2.20;;;6.10;99.90;;;4.19;100.00;98973.84;5030339;28;20440;-86
2021/12/05 07:40:27;;;;;;;9.05;2.78;;;6.20;99.90;;;4.20;100.00;98980.88;5009842;28;20042;-84
2021/12/05 07:42:57;;;;;;;7.50;2.30;;;6.20;99.90;;;4.14;100.00;98980.78;5010625;28;20048;-86
2021/12/05 07:45:32;;;;;;;10.98;2.42;;;6.20;99.90;;;4.14;100.00;98995.09;4992603;28;20060;-86
2021/12/05 07:48:07;;;;;;;10.23;2.20;;;6.20;99.90;;;4.15;100.00;98993.22;5010628;28;20077;-86
2021/12/05 07:50:42;;;;;;;7.32;1.92;;;6.20;99.90;;;4.16;100.00;99000.28;5010309;28;20065;-84
2021/12/05 07:53:18;;;;;;;7.68;2.17;;;6.20;99.90;;;4.07;100.00;98994.13;5010363;28;20050;-86
2021/12/05 07:55:48;;;;;;;9.95;2.47;;;6.20;99.90;;;4.13;100.00;99000.66;5010091;28;20054;-86
2021/12/05 07:58:30;;;;;;;14.57;2.47;;;6.20;99.90;;;4.18;100.00;99007.16;5010413;28;20062;-84
2021/12/05 08:01:05;;;;;;;8.68;2.38;;;6.20;99.90;;;4.14;100.00;99003.16;5010064;28;20042;-83
2021/12/05 08:14:41;;;;;;;7.45;2.28;;;6.30;99.90;;;4.36;100.00;99000.63;5008501;28;20076;-84
2021/12/05 08:17:16;;;;;;;8.13;2.25;;;6.30;99.90;;;4.37;100.00;99002.31;5009996;28;20041;-84
2021/12/05 08:19:43;;;;;;;6.43;2.00;;;6.30;99.90;;;4.35;100.00;99012.41;5026249;28;20037;-84
2021/12/05 08:22:11;;;;;;;8.52;2.35;;;6.30;99.90;;;4.38;100.00;99004.81;5015126;28;20070;-84
2021/12/05 08:24:41;;;;;;;9.52;2.15;;;6.30;99.90;;;4.42;100.00;99010.69;5009636;28;20073;-84
2021/12/05 08:27:13;;;;;;;7.38;2.00;;;6.30;99.90;;;4.46;100.00;99012.81;5009873;28;20056;-80
2021/12/05 08:29:45;;;;;;;6.20;1.63;;;6.40;99.90;;;4.49;100.00;99014.28;5009769;28;20445;-85
2021/12/05 08:32:26;;;;;;;12.57;2.50;;;6.40;99.90;;;4.53;100.00;99012.91;5009735;28;20045;-86
2021/12/05 08:43:53;;;;;;;10.77;2.50;;;6.50;99.90;;;4.59;100.00;99022.97;4991567;28;20080;-87
2021/12/05 09:28:21;;;;;;;6.25;2.08;;;6.60;99.90;;;4.80;100.00;99080.72;5047795;28;20045;-84
2021/12/05 09:31:03;;;;;;;8.18;2.42;;;6.60;99.90;;;4.85;100.00;99083.69;5048841;28;20048;-90
2021/12/05 10:06:57;;;;;;;5.60;2.10;;;6.80;99.90;;;5.05;100.00;99130.69;5028459;28;20041;-90
2021/12/05 10:09:57;;;;;;;6.38;2.45;;;6.80;99.90;;;5.02;100.00;99131.03;5010590;28;20518;-90
2021/12/05 10:12:43;;;;;;;7.43;2.22;;;6.80;99.90;;;5.06;100.00;99134.22;5028420;28;20125;-91
2021/12/05 10:15:28;;;;;;;5.07;2.10;;;6.80;99.90;;;5.01;100.00;99140.16;5010435;28;20053;-90
2021/12/05 10:18:47;;;;;;;7.90;2.20;;;6.80;99.90;;;4.99;100.00;99147.59;5010539;28;20418;-89
2021/12/05 10:27:14;;;;;;;7.50;2.33;;;6.90;99.90;;;5.02;100.00;99147.22;5010520;28;20095;-90
2021/12/05 10:38:14;;;;;;;7.20;2.63;;;6.90;99.90;;;5.07;100.00;99158.31;5047589;28;20052;-90
2021/12/05 10:40:53;;;;;;;8.13;2.53;;;6.90;99.90;;;5.02;100.00;99158.00;5030390;28;20567;-90
2021/12/05 10:43:24;;;;;;;7.20;2.38;;;7.00;99.90;;;5.08;100.00;99162.69;5032057;28;20099;-90
2021/12/05 10:45:56;;;;;;;7.40;2.40;;;7.00;99.90;;;5.12;100.00;99151.50;5014041;28;20135;-90
2021/12/05 10:48:30;;;;;;;9.00;2.42;;;6.90;99.90;;;5.19;100.00;99172.16;5013996;28;20049;-90
2021/12/05 10:50:59;;;;;;;9.05;2.72;;;7.00;99.90;;;5.21;100.00;99169.31;5013936;28;20136;-90
2021/12/05 10:53:40;;;;;;;7.43;2.17;;;7.00;99.90;;;5.20;100.00;99173.03;5031750;28;20037;-91
2021/12/05 10:56:16;;;;;;;6.90;2.70;;;7.00;99.90;;;5.20;100.00;99175.72;5013610;28;20049;-91
2021/12/05 10:58:50;;;;;;;11.00;2.85;;;7.00;99.90;;;5.16;100.00;99169.00;5014024;28;20140;-90
2021/12/05 11:01:36;;;;;;;6.03;2.60;;;7.00;99.90;;;5.23;100.00;99173.47;5031708;28;20099;-91
2021/12/05 11:04:07;;;;;;;9.15;2.17;;;7.00;99.90;;;5.30;100.00;99170.91;5014070;28;20077;-91
2021/12/05 11:06:44;;;;;;;5.85;2.10;;;7.10;99.90;;;5.39;100.00;99166.28;5030667;28;20160;-91
2021/12/05 11:09:20;;;;;;;7.13;2.38;;;7.10;99.90;;;5.38;100.00;99156.50;5031781;28;20033;-91
2021/12/05 11:11:50;;;;;;;8.50;2.67;;;7.10;99.90;;;5.35;100.00;99168.50;5030978;28;20077;-91
2021/12/05 11:14:21;;;;;;;6.32;2.28;;;7.10;99.90;;;5.45;100.00;99168.22;5029154;28;20107;-91
2021/12/05 11:16:54;;;;;;;;;;;7.10;99.90;;;5.52;100.00;99165.59;5030046;28;20045;-92
2021/12/05 11:19:38;;;;;;;4.63;1.95;;;7.20;99.90;;;5.49;100.00;99156.88;5031469;28;19928;-95
2021/12/05 11:22:16;;;;;;;8.20;2.60;;;7.20;99.90;;;5.48;100.00;99152.50;5032605;28;20050;-91
2021/12/05 11:24:50;;;;;;;7.20;2.28;;;7.20;99.90;;;5.58;100.00;99162.16;5023760;28;20874;-88
2021/12/05 11:27:30;;;;;;;6.32;2.45;;;7.20;99.90;;;5.64;100.00;99161.44;5031304;28;20045;-90
2021/12/05 11:30:14;;;;;;;3.78;1.70;;;7.30;99.90;;;5.56;100.00;99159.69;5034719;28;20044;-90
2021/12/05 11:32:50;;;;;;;6.03;2.13;;;7.30;99.90;;;5.57;100.00;99160.50;5033828;28;20079;-90
2021/12/05 11:35:39;;;;;;;6.82;2.08;;;7.30;99.90;;;5.61;100.00;99167.19;5014599;28;20041;-91
2021/12/05 11:38:17;;;;;;;5.38;2.08;;;7.30;99.90;;;5.65;100.00;99168.50;5013522;28;20413;-89
2021/12/05 11:40:51;;;;;;;6.18;2.05;;;7.30;99.90;;;5.62;100.00;99177.00;5015104;28;20046;-92
2021/12/05 11:43:23;;;;;;;5.57;1.95;;;7.30;99.90;;;5.64;100.00;99164.16;5014066;28;20490;-93
2021/12/05 11:46:01;;;;;;;6.82;1.92;;;7.30;99.90;;;5.64;100.00;99174.94;5013874;28;20119;-90
2021/12/05 11:48:31;;;;;;;4.97;1.70;;;7.30;99.90;;;5.65;100.00;99179.28;5016007;28;20073;-91
2021/12/05 11:51:00;;;;;;;6.28;1.63;;;7.30;99.90;;;5.65;100.00;99184.69;5013095;28;20160;-90
2021/12/05 11:53:41;;;;;;;3.88;1.63;;;7.30;99.90;;;5.63;100.00;99181.34;5030832;28;20249;-91
2021/12/05 11:56:11;;;;;;;6.22;1.67;;;7.30;99.90;;;5.67;100.00;99188.03;5012701;28;20464;-90
2021/12/05 11:58:39;;;;;;;4.78;1.80;;;7.30;99.90;;;5.71;100.00;99193.91;5013445;28;20153;-93
2021/12/05 12:01:10;;;;;;;5.38;1.40;;;7.30;99.90;;;5.72;100.00;99190.19;5022595;28;20055;-90
2021/12/05 12:03:40;;;;;;;5.32;1.70;;;7.30;99.90;;;5.67;100.00;99188.03;5032275;28;20080;-90
2021/12/05 12:06:08;;;;;;;7.88;1.77;;;7.40;99.90;;;5.71;100.00;99189.34;5027721;28;20567;-90
2021/12/05 12:08:36;;;;;;;4.57;1.60;;;7.40;99.90;;;5.75;100.00;99187.97;5017102;28;20139;-90
2021/12/05 12:11:04;;;;;;;7.40;1.98;;;7.40;99.90;;;5.72;100.00;99196.44;5014160;28;20107;-92
2021/12/05 12:13:38;;;;;;;4.78;1.77;;;7.40;99.90;;;5.76;100.00;99195.03;5030912;28;20068;-92
2021/12/05 12:16:12;;;;;;;5.15;1.45;;;7.40;99.90;;;5.79;100.00;99199.25;5035148;28;20044;-92
2021/12/05 12:21:13;;;;;;;6.28;2.05;;;7.40;99.90;;;5.78;100.00;99201.06;4985049;28;20050;-92
2021/12/05 12:23:41;;;;;;;6.82;1.80;;;7.40;99.90;;;5.80;100.00;99196.31;4987368;28;20050;-92
2021/12/05 12:26:12;;;;;;;5.95;2.13;;;7.40;99.90;;;5.79;100.00;99197.38;4986916;28;20681;-92
2021/12/05 12:28:41;;;;;;;8.98;1.77;;;7.40;99.90;;;5.70;100.00;99198.47;4971017;28;20102;-91
2021/12/05 12:31:14;;;;;;;5.78;1.65;;;7.50;99.90;;;5.67;100.00;99194.31;4971694;28;20043;-91
2021/12/05 12:33:48;;;;;;;6.95;1.55;;;7.50;99.90;;;5.74;100.00;99196.25;4965595;28;20043;-90
2021/12/05 12:36:15;;;;;;;3.33;1.50;;;7.50;99.90;;;5.71;100.00;99200.13;4950449;29;20499;-91
2021/12/05 12:38:45;;;;;;;6.90;1.58;;;7.50;99.90;;;5.76;100.00;99199.59;4950907;29;20057;-90
2021/12/05 12:41:18;;;;;;;4.03;1.58;;;7.50;99.90;;;5.78;100.00;99198.38;4950373;29;20047;-90
2021/12/05 12:43:52;;;;;;;4.95;1.60;;;7.50;99.90;;;5.75;100.00;99201.47;4950579;29;20137;-90
2021/12/05 12:46:41;;;;;;;4.78;1.60;;;7.50;99.90;;;5.78;100.00;99203.78;4956514;28;20423;-89
2021/12/05 12:49:29;;;;;;;4.90;1.70;;;7.50;99.90;;;5.79;100.00;99216.25;4970053;28;20058;-90
2021/12/05 12:52:03;;;;;;;5.32;1.70;;;7.50;99.90;;;5.79;100.00;99212.72;4969579;28;20058;-89
2021/12/05 12:54:35;;;;;;;7.68;1.88;;;7.50;99.90;;;5.73;100.00;99214.31;4985242;28;20039;-90
2021/12/05 12:57:13;;;;;;;4.85;1.55;;;7.50;99.90;;;5.78;100.00;99217.28;4970565;28;20814;-91
2021/12/05 12:59:46;;;;;;;6.43;1.67;;;7.50;99.90;;;5.79;100.00;99218.13;4970222;28;20055;-91
2021/12/05 13:02:37;;;;;;;5.38;1.45;;;7.50;99.90;;;5.86;100.00;99224.44;4969955;28;20046;-94
2021/12/05 13:05:34;;;;;;;3.95;1.70;;;7.50;99.90;;;5.83;100.00;99228.38;4971809;28;20047;-91
2021/12/05 13:11:00;;;;;;;5.53;1.55;;;7.50;99.90;;;5.88;100.00;99233.19;4970723;28;20054;-89
2021/12/05 13:13:29;;;;;;;5.22;1.75;;;7.50;99.90;;;5.81;100.00;99233.13;4969150;28;20729;-87
2021/12/05 13:16:11;;;;;;;5.88;2.05;;;7.50;99.90;;;5.83;100.00;99233.75;4969200;28;20487;-88
2021/12/05 13:18:40;;;;;;;4.22;1.45;;;7.60;99.90;;;5.81;100.00;99240.38;4969086;28;20730;-88
2021/12/05 13:21:10;;;;;;;5.82;2.10;;;7.60;99.90;;;5.83;100.00;99239.16;4963838;28;20047;-92
2021/12/05 13:23:42;;;;;;;4.65;1.55;;;7.60;99.70;;;5.84;100.00;99246.22;4963011;28;20125;-92
2021/12/05 13:26:38;;;;;;;4.15;1.67;;;7.60;99.80;;;5.86;100.00;99237.94;4986646;28;20870;-96
2021/12/05 13:29:14;;;;;;;4.80;1.60;;;7.60;99.90;;;5.90;100.00;99244.63;4953785;28;20121;-88
2021/12/05 13:31:53;;;;;;;4.32;1.50;;;7.60;99.90;;;5.92;100.00;99244.47;4963891;28;20053;-89
2021/12/05 13:34:45;;;;;;;4.45;1.80;;;7.60;99.90;;;5.85;100.00;99253.31;4959896;28;20046;-89
2021/12/05 13:37:27;;;;;;;;;;;7.60;99.70;;;5.81;100.00;99252.00;4970644;28;20570;-90
2021/12/05 13:40:04;;;;;;;4.55;1.42;;;7.60;99.60;;;5.81;100.00;99249.31;4973931;28;19929;-90
2021/12/05 13:42:43;;;;;;;5.68;3.20;;;7.60;99.90;;;5.80;100.00;99254.88;4959387;28;20141;-89
2021/12/05 13:45:42;;;;;;;8.32;5.35;;;7.60;99.60;;;5.82;100.00;99256.38;4958330;28;20074;-89
2021/12/05 13:48:20;;;;;;;4.50;2.60;;;7.60;99.90;;;5.82;100.00;99260.94;4954659;28;20126;-90
2021/12/05 13:51:08;;;;;;;5.80;1.98;;;7.60;99.90;;;5.72;100.00;99260.38;4960783;28;20109;-89
2021/12/05 13:53:59;;;;;;;4.00;1.40;;;7.60;99.70;;;5.68;100.00;99260.75;4950815;28;20047;-89
2021/12/05 13:56:31;;;;;;;6.78;1.70;;;7.60;99.50;;;5.63;100.00;99267.72;4954144;28;20043;-90
2021/12/05 13:59:07;;;;;;;6.03;2.03;;;7.60;99.20;;;5.69;100.00;99266.97;4952912;28;20114;-89
2021/12/05 14:01:44;;;;;;;6.35;1.70;;;7.60;99.50;;;5.71;100.00;99270.31;4982408;28;20061;-88
2021/12/05 14:04:27;;;;;;;6.97;2.00;;;7.60;99.70;;;5.71;100.00;99280.28;4965307;28;20118;-88
2021/12/05 14:07:01;;;;;;;4.68;1.98;;;7.60;99.50;;;5.70;100.00;99279.44;4955108;28;20044;-88
2021/12/05 14:09:33;;;;;;;4.65;1.65;;;7.60;99.80;;;5.66;100.00;99283.53;4953358;28;20117;-88
2021/12/05 14:12:14;;;;;;;8.20;1.90;;;7.60;99.40;;;5.72;100.00;99293.59;4970433;28;20050;-88
2021/12/05 14:14:45;;;;;;;3.60;1.48;;;7.60;99.50;;;5.76;100.00;99289.50;4973146;28;20043;-88
2021/12/05 14:17:16;;;;;;;3.42;1.50;;;7.60;99.20;;;5.75;100.00;99304.03;4964154;28;20047;-87
2021/12/05 14:19:50;;;;;;;6.72;1.77;;;7.60;99.20;;;5.74;100.00;99302.34;4968649;28;20062;-89
2021/12/05 14:22:20;;;;;;;5.50;1.85;;;7.60;99.20;;;5.79;100.00;99316.16;4968703;28;20047;-87
2021/12/05 14:24:53;;;;;;;5.63;2.00;;;7.60;99.40;;;5.78;100.00;99311.75;4953741;28;20074;-87
2021/12/05 14:27:33;;;;;;;3.95;1.58;;;7.60;99.30;;;5.78;100.00;99314.47;4961581;28;20526;-93
2021/12/05 14:30:05;;;;;;;6.50;1.92;;;7.60;99.00;;;5.79;100.00;99313.44;4973288;28;20054;-92
2021/12/05 14:32:34;;;;;;;;;;;7.60;99.00;;;5.80;100.00;99317.81;4974380;28;20046;-89
2021/12/05 14:35:09;;;;;;;8.35;1.70;;;7.60;99.10;;;5.85;100.00;99314.59;4987798;28;19973;-84
2021/12/05 14:37:40;;;;;;;4.75;1.70;;;7.60;99.40;;;5.83;100.00;99322.84;4972908;28;20067;-86
2021/12/05 14:40:10;;;;;;;4.90;1.92;;;7.60;99.30;;;5.85;100.00;99331.59;4972754;28;20066;-86
2021/12/05 14:42:44;;;;;;;5.97;2.05;;;7.60;99.40;;;5.84;100.00;99339.88;4975819;28;20069;-94
2021/12/05 14:45:15;;;;;;;5.05;1.73;;;7.60;99.40;;;5.84;100.00;99340.72;4982732;28;20043;-86
2021/12/05 14:47:45;;;;;;;5.35;1.83;;;7.60;99.60;;;5.84;100.00;99340.72;4974763;28;20547;-87
2021/12/05 14:50:19;;;;;;;5.25;1.92;;;7.60;99.60;;;5.83;100.00;99346.31;4957504;28;20067;-88
2021/12/05 14:52:51;;;;;;;8.30;2.08;;;7.60;99.20;;;5.83;100.00;99357.13;4980323;28;20106;-88
2021/12/05 14:55:21;;;;;;;4.75;1.90;;;7.60;99.30;;;5.81;100.00;99361.88;4960997;28;20137;-88
2021/12/05 14:58:04;;;;;;;7.18;2.30;;;7.60;99.00;;;5.81;100.00;99361.88;4954110;28;20051;-90